sensor_id;sensor_type;location;lat;lon;timestamp;P1;durP1;ratioP1;P2;durP2;ratioP2
36379;SDS011;22411;53.016;18.632;2022-10-16T00:01:59;46.55;;;35.50;;
36379;SDS011;22411;53.016;18.632;2022-10-16T00:04:25;45.60;;;34.13;;
36379;SDS011;22411;53.016;18.632;2022-10-16T00:06:51;43.55;;;35.05;;
36379;SDS011;22411;53.016;18.632;2022-10-16T00:09:17;45.25;;;34.30;;
36379;SDS011;22411;53.016;18.632;2022-10-16T00:11:42;42.22;;;34.40;;
36379;SDS011;22411;53.016;18.632;2022-10-16T00:14:10;48.03;;;35.55;;
36379;SDS011;22411;53.016;18.632;2022-10-16T00:16:38;44.08;;;34.63;;
36379;SDS011;22411;53.016;18.632;2022-10-16T00:19:04;45.83;;;35.70;;
36379;SDS011;22411;53.016;18.632;2022-10-16T00:21:30;65.35;;;37.05;;
36379;SDS011;22411;53.016;18.632;2022-10-16T00:23:58;43.28;;;35.90;;
36379;SDS011;22411;53.016;18.632;2022-10-16T00:26:26;50.78;;;37.03;;
36379;SDS011;22411;53.016;18.632;2022-10-16T00:28:54;44.17;;;34.78;;
36379;SDS011;22411;53.016;18.632;2022-10-16T00:31:20;46.28;;;36.03;;
36379;SDS011;22411;53.016;18.632;2022-10-16T00:33:47;48.28;;;34.63;;
36379;SDS011;22411;53.016;18.632;2022-10-16T00:36:14;49.10;;;36.13;;
36379;SDS011;22411;53.016;18.632;2022-10-16T00:38:42;49.50;;;37.55;;
36379;SDS011;22411;53.016;18.632;2022-10-16T00:41:13;45.85;;;36.17;;
36379;SDS011;22411;53.016;18.632;2022-10-16T00:43:48;43.60;;;35.35;;
36379;SDS011;22411;53.016;18.632;2022-10-16T00:46:23;46.35;;;35.70;;
36379;SDS011;22411;53.016;18.632;2022-10-16T00:48:55;43.15;;;34.72;;
36379;SDS011;22411;53.016;18.632;2022-10-16T00:51:37;43.65;;;35.08;;
36379;SDS011;22411;53.016;18.632;2022-10-16T00:54:10;44.70;;;35.15;;
36379;SDS011;22411;53.016;18.632;2022-10-16T00:56:40;46.95;;;36.38;;
36379;SDS011;22411;53.016;18.632;2022-10-16T00:59:08;46.00;;;35.97;;
36379;SDS011;22411;53.016;18.632;2022-10-16T01:01:48;47.53;;;36.47;;
36379;SDS011;22411;53.016;18.632;2022-10-16T01:04:14;47.15;;;36.25;;
36379;SDS011;22411;53.016;18.632;2022-10-16T01:20:10;48.15;;;37.88;;
36379;SDS011;22411;53.016;18.632;2022-10-16T01:25:31;51.92;;;37.53;;
36379;SDS011;22411;53.016;18.632;2022-10-16T01:28:12;49.03;;;38.35;;
36379;SDS011;22411;53.016;18.632;2022-10-16T01:30:40;49.42;;;38.35;;
36379;SDS011;22411;53.016;18.632;2022-10-16T01:33:14;52.35;;;38.20;;
36379;SDS011;22411;53.016;18.632;2022-10-16T01:35:52;51.67;;;36.78;;
36379;SDS011;22411;53.016;18.632;2022-10-16T01:38:22;47.38;;;36.60;;
36379;SDS011;22411;53.016;18.632;2022-10-16T01:40:58;48.65;;;37.97;;
36379;SDS011;22411;53.016;18.632;2022-10-16T01:43:37;53.55;;;39.03;;
36379;SDS011;22411;53.016;18.632;2022-10-16T01:46:24;51.58;;;38.10;;
36379;SDS011;22411;53.016;18.632;2022-10-16T01:48:51;51.25;;;37.45;;
36379;SDS011;22411;53.016;18.632;2022-10-16T01:51:18;52.00;;;37.30;;
36379;SDS011;22411;53.016;18.632;2022-10-16T01:53:47;51.10;;;38.10;;
36379;SDS011;22411;53.016;18.632;2022-10-16T01:58:45;46.85;;;35.70;;
36379;SDS011;22411;53.016;18.632;2022-10-16T02:03:42;49.60;;;37.10;;
36379;SDS011;22411;53.016;18.632;2022-10-16T02:06:09;51.08;;;38.88;;
36379;SDS011;22411;53.016;18.632;2022-10-16T02:08:35;53.97;;;38.15;;
36379;SDS011;22411;53.016;18.632;2022-10-16T02:11:02;53.40;;;38.25;;
36379;SDS011;22411;53.016;18.632;2022-10-16T02:13:33;50.83;;;39.60;;
36379;SDS011;22411;53.016;18.632;2022-10-16T02:16:04;50.50;;;37.78;;
36379;SDS011;22411;53.016;18.632;2022-10-16T02:18:30;47.08;;;37.40;;
36379;SDS011;22411;53.016;18.632;2022-10-16T02:21:06;50.42;;;38.67;;
36379;SDS011;22411;53.016;18.632;2022-10-16T02:26:35;51.08;;;36.97;;
36379;SDS011;22411;53.016;18.632;2022-10-16T02:29:06;50.10;;;37.15;;
36379;SDS011;22411;53.016;18.632;2022-10-16T02:31:38;50.25;;;37.67;;
36379;SDS011;22411;53.016;18.632;2022-10-16T02:34:09;52.78;;;38.70;;
36379;SDS011;22411;53.016;18.632;2022-10-16T02:36:37;54.10;;;39.38;;
36379;SDS011;22411;53.016;18.632;2022-10-16T02:39:06;50.17;;;38.63;;
36379;SDS011;22411;53.016;18.632;2022-10-16T02:41:33;50.17;;;38.60;;
36379;SDS011;22411;53.016;18.632;2022-10-16T02:43:59;50.13;;;37.05;;
36379;SDS011;22411;53.016;18.632;2022-10-16T02:46:25;48.80;;;37.30;;
36379;SDS011;22411;53.016;18.632;2022-10-16T02:48:51;50.38;;;36.50;;
36379;SDS011;22411;53.016;18.632;2022-10-16T02:51:17;50.97;;;39.78;;
36379;SDS011;22411;53.016;18.632;2022-10-16T02:53:43;50.65;;;38.22;;
36379;SDS011;22411;53.016;18.632;2022-10-16T02:56:09;49.25;;;36.83;;
36379;SDS011;22411;53.016;18.632;2022-10-16T02:58:35;51.53;;;36.13;;
36379;SDS011;22411;53.016;18.632;2022-10-16T03:01:01;46.00;;;35.58;;
36379;SDS011;22411;53.016;18.632;2022-10-16T03:03:27;50.38;;;35.20;;
36379;SDS011;22411;53.016;18.632;2022-10-16T03:05:53;48.90;;;38.10;;
36379;SDS011;22411;53.016;18.632;2022-10-16T03:08:19;50.42;;;38.60;;
36379;SDS011;22411;53.016;18.632;2022-10-16T03:10:49;51.83;;;37.53;;
36379;SDS011;22411;53.016;18.632;2022-10-16T03:13:15;50.83;;;38.13;;
36379;SDS011;22411;53.016;18.632;2022-10-16T03:15:41;48.97;;;36.38;;
36379;SDS011;22411;53.016;18.632;2022-10-16T03:18:07;47.65;;;36.35;;
36379;SDS011;22411;53.016;18.632;2022-10-16T03:20:33;41.67;;;32.65;;
36379;SDS011;22411;53.016;18.632;2022-10-16T03:23:00;45.67;;;34.78;;
36379;SDS011;22411;53.016;18.632;2022-10-16T03:25:27;46.13;;;34.60;;
36379;SDS011;22411;53.016;18.632;2022-10-16T03:27:53;42.92;;;34.20;;
36379;SDS011;22411;53.016;18.632;2022-10-16T03:30:19;45.97;;;35.47;;
36379;SDS011;22411;53.016;18.632;2022-10-16T03:32:46;42.63;;;33.70;;
36379;SDS011;22411;53.016;18.632;2022-10-16T03:35:12;43.75;;;33.60;;
36379;SDS011;22411;53.016;18.632;2022-10-16T03:37:38;48.13;;;34.38;;
36379;SDS011;22411;53.016;18.632;2022-10-16T03:40:04;43.17;;;32.63;;
36379;SDS011;22411;53.016;18.632;2022-10-16T03:42:30;44.17;;;32.78;;
36379;SDS011;22411;53.016;18.632;2022-10-16T03:44:56;41.88;;;31.73;;
36379;SDS011;22411;53.016;18.632;2022-10-16T03:47:22;39.20;;;32.15;;
36379;SDS011;22411;53.016;18.632;2022-10-16T03:49:49;40.40;;;31.25;;
36379;SDS011;22411;53.016;18.632;2022-10-16T03:52:15;42.42;;;31.83;;
36379;SDS011;22411;53.016;18.632;2022-10-16T03:54:41;37.45;;;30.27;;
36379;SDS011;22411;53.016;18.632;2022-10-16T03:57:08;38.58;;;30.63;;
36379;SDS011;22411;53.016;18.632;2022-10-16T03:59:33;42.03;;;30.75;;
36379;SDS011;22411;53.016;18.632;2022-10-16T04:01:59;37.90;;;29.77;;
36379;SDS011;22411;53.016;18.632;2022-10-16T04:04:25;43.13;;;31.15;;
36379;SDS011;22411;53.016;18.632;2022-10-16T04:06:51;43.83;;;28.50;;
36379;SDS011;22411;53.016;18.632;2022-10-16T04:09:17;36.10;;;28.83;;
36379;SDS011;22411;53.016;18.632;2022-10-16T04:11:43;32.78;;;27.42;;
36379;SDS011;22411;53.016;18.632;2022-10-16T04:14:08;37.60;;;27.77;;
36379;SDS011;22411;53.016;18.632;2022-10-16T04:16:34;34.47;;;28.27;;
36379;SDS011;22411;53.016;18.632;2022-10-16T04:19:00;38.63;;;28.15;;
36379;SDS011;22411;53.016;18.632;2022-10-16T04:21:26;32.78;;;28.42;;
36379;SDS011;22411;53.016;18.632;2022-10-16T04:23:52;34.40;;;27.42;;
36379;SDS011;22411;53.016;18.632;2022-10-16T04:26:17;35.38;;;26.15;;
36379;SDS011;22411;53.016;18.632;2022-10-16T04:28:43;33.22;;;25.45;;
36379;SDS011;22411;53.016;18.632;2022-10-16T04:31:09;37.30;;;26.85;;
36379;SDS011;22411;53.016;18.632;2022-10-16T04:33:35;34.25;;;26.05;;
36379;SDS011;22411;53.016;18.632;2022-10-16T04:36:01;29.05;;;24.00;;
36379;SDS011;22411;53.016;18.632;2022-10-16T04:38:28;29.35;;;23.85;;
36379;SDS011;22411;53.016;18.632;2022-10-16T04:40:55;27.48;;;22.65;;
36379;SDS011;22411;53.016;18.632;2022-10-16T04:43:21;28.92;;;24.30;;
36379;SDS011;22411;53.016;18.632;2022-10-16T04:45:47;28.77;;;23.00;;
36379;SDS011;22411;53.016;18.632;2022-10-16T04:48:15;28.35;;;22.52;;
36379;SDS011;22411;53.016;18.632;2022-10-16T04:50:41;30.38;;;23.17;;
36379;SDS011;22411;53.016;18.632;2022-10-16T04:53:07;29.38;;;22.60;;
36379;SDS011;22411;53.016;18.632;2022-10-16T04:55:34;28.67;;;23.52;;
36379;SDS011;22411;53.016;18.632;2022-10-16T04:57:59;29.00;;;22.17;;
36379;SDS011;22411;53.016;18.632;2022-10-16T05:00:26;26.17;;;21.48;;
36379;SDS011;22411;53.016;18.632;2022-10-16T05:02:51;23.67;;;20.33;;
36379;SDS011;22411;53.016;18.632;2022-10-16T05:05:18;23.70;;;19.55;;
36379;SDS011;22411;53.016;18.632;2022-10-16T05:07:47;23.40;;;19.23;;
36379;SDS011;22411;53.016;18.632;2022-10-16T05:10:13;26.02;;;20.15;;
36379;SDS011;22411;53.016;18.632;2022-10-16T05:12:39;23.52;;;19.10;;
36379;SDS011;22411;53.016;18.632;2022-10-16T05:15:05;22.08;;;18.25;;
36379;SDS011;22411;53.016;18.632;2022-10-16T05:17:31;21.95;;;17.52;;
36379;SDS011;22411;53.016;18.632;2022-10-16T05:19:57;22.27;;;17.88;;
36379;SDS011;22411;53.016;18.632;2022-10-16T05:22:23;19.00;;;16.70;;
36379;SDS011;22411;53.016;18.632;2022-10-16T05:24:49;23.58;;;18.98;;
36379;SDS011;22411;53.016;18.632;2022-10-16T05:27:15;19.15;;;16.30;;
36379;SDS011;22411;53.016;18.632;2022-10-16T05:29:45;22.17;;;18.50;;
36379;SDS011;22411;53.016;18.632;2022-10-16T05:32:12;21.92;;;17.10;;
36379;SDS011;22411;53.016;18.632;2022-10-16T05:34:39;19.85;;;16.15;;
36379;SDS011;22411;53.016;18.632;2022-10-16T05:37:05;21.05;;;17.33;;
36379;SDS011;22411;53.016;18.632;2022-10-16T05:39:31;18.30;;;15.52;;
36379;SDS011;22411;53.016;18.632;2022-10-16T05:41:57;25.10;;;16.85;;
36379;SDS011;22411;53.016;18.632;2022-10-16T05:44:23;18.17;;;14.20;;
36379;SDS011;22411;53.016;18.632;2022-10-16T05:46:49;22.42;;;15.88;;
36379;SDS011;22411;53.016;18.632;2022-10-16T05:49:15;16.90;;;14.55;;
36379;SDS011;22411;53.016;18.632;2022-10-16T05:51:41;19.63;;;15.48;;
36379;SDS011;22411;53.016;18.632;2022-10-16T05:54:07;15.95;;;14.23;;
36379;SDS011;22411;53.016;18.632;2022-10-16T05:56:33;16.23;;;14.45;;
36379;SDS011;22411;53.016;18.632;2022-10-16T05:58:59;19.77;;;15.20;;
36379;SDS011;22411;53.016;18.632;2022-10-16T06:01:25;22.83;;;20.02;;
36379;SDS011;22411;53.016;18.632;2022-10-16T06:03:51;22.27;;;19.38;;
36379;SDS011;22411;53.016;18.632;2022-10-16T06:06:18;23.75;;;18.45;;
36379;SDS011;22411;53.016;18.632;2022-10-16T06:08:47;16.33;;;14.13;;
36379;SDS011;22411;53.016;18.632;2022-10-16T06:11:14;19.58;;;15.88;;
36379;SDS011;22411;53.016;18.632;2022-10-16T06:13:49;17.65;;;15.07;;
36379;SDS011;22411;53.016;18.632;2022-10-16T06:16:15;15.93;;;13.95;;
36379;SDS011;22411;53.016;18.632;2022-10-16T06:18:41;17.58;;;14.02;;
36379;SDS011;22411;53.016;18.632;2022-10-16T06:21:08;15.75;;;13.82;;
36379;SDS011;22411;53.016;18.632;2022-10-16T06:23:36;16.67;;;13.27;;
36379;SDS011;22411;53.016;18.632;2022-10-16T06:26:08;18.88;;;14.02;;
36379;SDS011;22411;53.016;18.632;2022-10-16T06:28:36;15.63;;;12.50;;
36379;SDS011;22411;53.016;18.632;2022-10-16T06:31:04;15.85;;;13.60;;
36379;SDS011;22411;53.016;18.632;2022-10-16T06:33:31;16.02;;;13.15;;
36379;SDS011;22411;53.016;18.632;2022-10-16T06:36:03;14.93;;;13.25;;
36379;SDS011;22411;53.016;18.632;2022-10-16T06:38:32;15.40;;;13.13;;
36379;SDS011;22411;53.016;18.632;2022-10-16T06:40:58;15.05;;;11.93;;
36379;SDS011;22411;53.016;18.632;2022-10-16T06:43:24;15.27;;;11.80;;
36379;SDS011;22411;53.016;18.632;2022-10-16T06:45:54;12.70;;;10.88;;
36379;SDS011;22411;53.016;18.632;2022-10-16T06:48:21;11.48;;;10.27;;
36379;SDS011;22411;53.016;18.632;2022-10-16T06:50:59;13.27;;;11.52;;
36379;SDS011;22411;53.016;18.632;2022-10-16T06:53:30;13.02;;;11.73;;
36379;SDS011;22411;53.016;18.632;2022-10-16T06:55:58;11.73;;;10.52;;
36379;SDS011;22411;53.016;18.632;2022-10-16T06:58:36;15.82;;;12.48;;
36379;SDS011;22411;53.016;18.632;2022-10-16T07:01:03;20.45;;;13.38;;
36379;SDS011;22411;53.016;18.632;2022-10-16T07:03:30;13.27;;;10.82;;
36379;SDS011;22411;53.016;18.632;2022-10-16T07:05:56;15.77;;;11.68;;
36379;SDS011;22411;53.016;18.632;2022-10-16T07:08:22;23.17;;;16.27;;
36379;SDS011;22411;53.016;18.632;2022-10-16T07:10:48;26.80;;;15.73;;
36379;SDS011;22411;53.016;18.632;2022-10-16T07:13:14;19.05;;;11.75;;
36379;SDS011;22411;53.016;18.632;2022-10-16T07:15:40;17.15;;;11.45;;
36379;SDS011;22411;53.016;18.632;2022-10-16T07:18:07;13.35;;;10.43;;
36379;SDS011;22411;53.016;18.632;2022-10-16T07:20:37;9.73;;;8.68;;
36379;SDS011;22411;53.016;18.632;2022-10-16T07:23:03;11.63;;;9.20;;
36379;SDS011;22411;53.016;18.632;2022-10-16T07:25:29;13.13;;;8.60;;
36379;SDS011;22411;53.016;18.632;2022-10-16T07:27:56;13.55;;;9.02;;
36379;SDS011;22411;53.016;18.632;2022-10-16T07:30:22;11.52;;;9.50;;
36379;SDS011;22411;53.016;18.632;2022-10-16T07:32:48;12.07;;;9.55;;
36379;SDS011;22411;53.016;18.632;2022-10-16T07:35:14;11.77;;;8.77;;
36379;SDS011;22411;53.016;18.632;2022-10-16T07:37:43;11.38;;;10.02;;
36379;SDS011;22411;53.016;18.632;2022-10-16T07:40:10;10.48;;;9.57;;
36379;SDS011;22411;53.016;18.632;2022-10-16T07:42:38;19.80;;;14.82;;
36379;SDS011;22411;53.016;18.632;2022-10-16T07:45:03;15.77;;;13.13;;
36379;SDS011;22411;53.016;18.632;2022-10-16T07:47:30;19.27;;;17.38;;
36379;SDS011;22411;53.016;18.632;2022-10-16T07:49:56;14.18;;;9.23;;
36379;SDS011;22411;53.016;18.632;2022-10-16T07:52:22;12.63;;;11.43;;
36379;SDS011;22411;53.016;18.632;2022-10-16T07:54:48;11.45;;;10.30;;
36379;SDS011;22411;53.016;18.632;2022-10-16T07:57:14;10.63;;;8.90;;
36379;SDS011;22411;53.016;18.632;2022-10-16T07:59:45;10.20;;;8.97;;
36379;SDS011;22411;53.016;18.632;2022-10-16T08:02:12;10.68;;;9.65;;
36379;SDS011;22411;53.016;18.632;2022-10-16T08:04:38;11.60;;;8.55;;
36379;SDS011;22411;53.016;18.632;2022-10-16T08:07:06;9.43;;;8.52;;
36379;SDS011;22411;53.016;18.632;2022-10-16T08:09:33;10.95;;;9.90;;
36379;SDS011;22411;53.016;18.632;2022-10-16T08:11:59;8.25;;;7.03;;
36379;SDS011;22411;53.016;18.632;2022-10-16T08:14:24;10.05;;;7.35;;
36379;SDS011;22411;53.016;18.632;2022-10-16T08:16:51;7.38;;;6.43;;
36379;SDS011;22411;53.016;18.632;2022-10-16T08:19:16;9.23;;;8.32;;
36379;SDS011;22411;53.016;18.632;2022-10-16T08:21:46;14.07;;;12.70;;
36379;SDS011;22411;53.016;18.632;2022-10-16T08:24:13;10.00;;;8.38;;
36379;SDS011;22411;53.016;18.632;2022-10-16T08:26:39;9.02;;;7.57;;
36379;SDS011;22411;53.016;18.632;2022-10-16T08:29:05;7.32;;;5.78;;
36379;SDS011;22411;53.016;18.632;2022-10-16T08:31:31;7.25;;;6.55;;
36379;SDS011;22411;53.016;18.632;2022-10-16T08:33:57;10.48;;;7.88;;
36379;SDS011;22411;53.016;18.632;2022-10-16T08:36:23;58.60;;;33.55;;
36379;SDS011;22411;53.016;18.632;2022-10-16T08:38:49;8.13;;;6.85;;
36379;SDS011;22411;53.016;18.632;2022-10-16T08:49:59;10.02;;;8.98;;
36379;SDS011;22411;53.016;18.632;2022-10-16T08:52:34;8.55;;;7.68;;
36379;SDS011;22411;53.016;18.632;2022-10-16T08:55:04;7.55;;;6.90;;
36379;SDS011;22411;53.016;18.632;2022-10-16T08:57:30;15.50;;;14.02;;
36379;SDS011;22411;53.016;18.632;2022-10-16T09:00:00;5.43;;;4.93;;
36379;SDS011;22411;53.016;18.632;2022-10-16T09:02:37;5.20;;;4.70;;
36379;SDS011;22411;53.016;18.632;2022-10-16T09:07:55;15.68;;;12.85;;
36379;SDS011;22411;53.016;18.632;2022-10-16T09:21:33;6.43;;;5.05;;
36379;SDS011;22411;53.016;18.632;2022-10-16T09:24:16;4.45;;;3.90;;
36379;SDS011;22411;53.016;18.632;2022-10-16T09:26:45;7.05;;;6.38;;
36379;SDS011;22411;53.016;18.632;2022-10-16T09:29:12;8.02;;;7.43;;
36379;SDS011;22411;53.016;18.632;2022-10-16T09:31:40;6.28;;;5.28;;
36379;SDS011;22411;53.016;18.632;2022-10-16T09:34:53;5.70;;;5.00;;
36379;SDS011;22411;53.016;18.632;2022-10-16T09:37:00;6.40;;;5.80;;
36379;SDS011;22411;53.016;18.632;2022-10-16T09:39:29;8.75;;;6.85;;
36379;SDS011;22411;53.016;18.632;2022-10-16T09:41:56;6.20;;;5.60;;
36379;SDS011;22411;53.016;18.632;2022-10-16T09:44:29;7.82;;;6.40;;
36379;SDS011;22411;53.016;18.632;2022-10-16T09:47:03;7.43;;;6.30;;
36379;SDS011;22411;53.016;18.632;2022-10-16T09:55:14;5.38;;;4.88;;
36379;SDS011;22411;53.016;18.632;2022-10-16T09:57:51;6.25;;;5.65;;
36379;SDS011;22411;53.016;18.632;2022-10-16T10:00:19;6.03;;;5.43;;
36379;SDS011;22411;53.016;18.632;2022-10-16T10:02:46;5.70;;;4.97;;
36379;SDS011;22411;53.016;18.632;2022-10-16T10:05:23;5.93;;;5.43;;
36379;SDS011;22411;53.016;18.632;2022-10-16T10:08:24;5.45;;;4.93;;
36379;SDS011;22411;53.016;18.632;2022-10-16T10:10:44;4.95;;;4.45;;
36379;SDS011;22411;53.016;18.632;2022-10-16T10:13:20;8.57;;;5.97;;
36379;SDS011;22411;53.016;18.632;2022-10-16T10:15:50;6.47;;;5.50;;
36379;SDS011;22411;53.016;18.632;2022-10-16T10:18:19;6.63;;;3.60;;
36379;SDS011;22411;53.016;18.632;2022-10-16T10:20:58;5.68;;;4.18;;
36379;SDS011;22411;53.016;18.632;2022-10-16T10:23:26;5.88;;;4.63;;
36379;SDS011;22411;53.016;18.632;2022-10-16T10:28:52;4.13;;;3.45;;
36379;SDS011;22411;53.016;18.632;2022-10-16T10:45:42;5.22;;;3.20;;
36379;SDS011;22411;53.016;18.632;2022-10-16T10:51:01;3.22;;;2.83;;
36379;SDS011;22411;53.016;18.632;2022-10-16T10:56:20;3.42;;;3.13;;
36379;SDS011;22411;53.016;18.632;2022-10-16T10:58:58;3.67;;;3.35;;
36379;SDS011;22411;53.016;18.632;2022-10-16T11:04:21;4.55;;;3.67;;
36379;SDS011;22411;53.016;18.632;2022-10-16T11:07:04;4.38;;;3.97;;
36379;SDS011;22411;53.016;18.632;2022-10-16T11:09:36;6.78;;;6.15;;
36379;SDS011;22411;53.016;18.632;2022-10-16T11:12:42;4.13;;;3.70;;
36379;SDS011;22411;53.016;18.632;2022-10-16T11:20:37;6.68;;;4.25;;
36379;SDS011;22411;53.016;18.632;2022-10-16T11:23:14;4.60;;;4.18;;
36379;SDS011;22411;53.016;18.632;2022-10-16T11:25:47;4.53;;;3.38;;
36379;SDS011;22411;53.016;18.632;2022-10-16T11:28:15;3.65;;;3.08;;
36379;SDS011;22411;53.016;18.632;2022-10-16T11:33:37;2.45;;;2.20;;
36379;SDS011;22411;53.016;18.632;2022-10-16T11:49:26;4.95;;;3.60;;
36379;SDS011;22411;53.016;18.632;2022-10-16T11:51:59;3.78;;;3.40;;
36379;SDS011;22411;53.016;18.632;2022-10-16T11:57:32;6.95;;;5.75;;
36379;SDS011;22411;53.016;18.632;2022-10-16T12:00:02;5.00;;;4.57;;
36379;SDS011;22411;53.016;18.632;2022-10-16T12:02:33;5.28;;;4.10;;
36379;SDS011;22411;53.016;18.632;2022-10-16T12:05:20;5.88;;;3.75;;
36379;SDS011;22411;53.016;18.632;2022-10-16T12:10:25;6.45;;;5.10;;
36379;SDS011;22411;53.016;18.632;2022-10-16T12:12:53;6.50;;;5.90;;
36379;SDS011;22411;53.016;18.632;2022-10-16T12:15:21;6.32;;;4.90;;
36379;SDS011;22411;53.016;18.632;2022-10-16T12:17:52;9.10;;;6.65;;
36379;SDS011;22411;53.016;18.632;2022-10-16T12:20:33;6.97;;;6.30;;
36379;SDS011;22411;53.016;18.632;2022-10-16T12:23:03;7.93;;;6.88;;
36379;SDS011;22411;53.016;18.632;2022-10-16T12:25:37;6.00;;;5.13;;
36379;SDS011;22411;53.016;18.632;2022-10-16T12:30:41;7.70;;;7.00;;
36379;SDS011;22411;53.016;18.632;2022-10-16T12:33:29;6.15;;;5.00;;
36379;SDS011;22411;53.016;18.632;2022-10-16T12:35:57;6.80;;;5.85;;
36379;SDS011;22411;53.016;18.632;2022-10-16T12:38:25;11.52;;;7.95;;
36379;SDS011;22411;53.016;18.632;2022-10-16T12:41:00;6.93;;;4.68;;
36379;SDS011;22411;53.016;18.632;2022-10-16T12:43:35;8.20;;;6.40;;
36379;SDS011;22411;53.016;18.632;2022-10-16T12:48:37;11.25;;;9.38;;
36379;SDS011;22411;53.016;18.632;2022-10-16T12:54:11;9.50;;;6.63;;
36379;SDS011;22411;53.016;18.632;2022-10-16T12:57:04;7.60;;;5.57;;
36379;SDS011;22411;53.016;18.632;2022-10-16T13:03:05;5.95;;;5.32;;
36379;SDS011;22411;53.016;18.632;2022-10-16T13:12:18;10.43;;;6.25;;
36379;SDS011;22411;53.016;18.632;2022-10-16T13:16:54;5.78;;;5.28;;
36379;SDS011;22411;53.016;18.632;2022-10-16T13:23:02;4.75;;;4.35;;
36379;SDS011;22411;53.016;18.632;2022-10-16T13:28:17;4.10;;;3.80;;
36379;SDS011;22411;53.016;18.632;2022-10-16T13:30:51;4.20;;;3.80;;
36379;SDS011;22411;53.016;18.632;2022-10-16T13:36:17;4.40;;;4.00;;
36379;SDS011;22411;53.016;18.632;2022-10-16T13:38:58;4.40;;;4.00;;
36379;SDS011;22411;53.016;18.632;2022-10-16T13:41:44;4.20;;;3.90;;
36379;SDS011;22411;53.016;18.632;2022-10-16T13:44:12;4.63;;;3.90;;
36379;SDS011;22411;53.016;18.632;2022-10-16T13:46:43;4.47;;;3.85;;
36379;SDS011;22411;53.016;18.632;2022-10-16T13:51:38;5.50;;;4.65;;
36379;SDS011;22411;53.016;18.632;2022-10-16T13:54:04;6.88;;;6.22;;
36379;SDS011;22411;53.016;18.632;2022-10-16T13:56:31;5.32;;;4.90;;
36379;SDS011;22411;53.016;18.632;2022-10-16T13:59:05;7.30;;;6.63;;
36379;SDS011;22411;53.016;18.632;2022-10-16T14:01:33;6.90;;;6.28;;
36379;SDS011;22411;53.016;18.632;2022-10-16T14:04:06;5.35;;;4.85;;
36379;SDS011;22411;53.016;18.632;2022-10-16T14:06:35;5.47;;;4.95;;
36379;SDS011;22411;53.016;18.632;2022-10-16T14:09:14;5.65;;;4.43;;
36379;SDS011;22411;53.016;18.632;2022-10-16T14:11:45;7.53;;;4.03;;
36379;SDS011;22411;53.016;18.632;2022-10-16T14:14:15;5.72;;;5.13;;
36379;SDS011;22411;53.016;18.632;2022-10-16T14:16:41;5.55;;;4.22;;
36379;SDS011;22411;53.016;18.632;2022-10-16T14:19:18;6.20;;;4.88;;
36379;SDS011;22411;53.016;18.632;2022-10-16T14:21:49;4.50;;;3.90;;
36379;SDS011;22411;53.016;18.632;2022-10-16T14:24:27;4.22;;;3.92;;
36379;SDS011;22411;53.016;18.632;2022-10-16T14:27:20;4.47;;;4.05;;
36379;SDS011;22411;53.016;18.632;2022-10-16T14:30:35;5.55;;;5.05;;
36379;SDS011;22411;53.016;18.632;2022-10-16T14:33:44;5.38;;;4.82;;
36379;SDS011;22411;53.016;18.632;2022-10-16T14:35:58;6.22;;;5.50;;
36379;SDS011;22411;53.016;18.632;2022-10-16T14:38:31;4.50;;;3.83;;
36379;SDS011;22411;53.016;18.632;2022-10-16T14:40:58;5.38;;;4.22;;
36379;SDS011;22411;53.016;18.632;2022-10-16T14:43:29;4.45;;;4.05;;
36379;SDS011;22411;53.016;18.632;2022-10-16T14:46:16;3.92;;;3.63;;
36379;SDS011;22411;53.016;18.632;2022-10-16T14:48:49;5.65;;;4.60;;
36379;SDS011;22411;53.016;18.632;2022-10-16T14:51:18;6.38;;;4.13;;
36379;SDS011;22411;53.016;18.632;2022-10-16T14:53:50;6.93;;;4.88;;
36379;SDS011;22411;53.016;18.632;2022-10-16T14:56:19;8.73;;;7.13;;
36379;SDS011;22411;53.016;18.632;2022-10-16T14:58:49;10.60;;;9.55;;
36379;SDS011;22411;53.016;18.632;2022-10-16T15:01:16;7.20;;;6.25;;
36379;SDS011;22411;53.016;18.632;2022-10-16T15:03:42;7.88;;;5.10;;
36379;SDS011;22411;53.016;18.632;2022-10-16T15:06:12;9.75;;;6.68;;
36379;SDS011;22411;53.016;18.632;2022-10-16T15:08:40;7.70;;;5.85;;
36379;SDS011;22411;53.016;18.632;2022-10-16T15:11:13;7.15;;;5.47;;
36379;SDS011;22411;53.016;18.632;2022-10-16T15:13:41;8.35;;;5.60;;
36379;SDS011;22411;53.016;18.632;2022-10-16T15:16:11;8.13;;;5.93;;
36379;SDS011;22411;53.016;18.632;2022-10-16T15:18:38;5.57;;;4.97;;
36379;SDS011;22411;53.016;18.632;2022-10-16T15:21:04;7.20;;;5.35;;
36379;SDS011;22411;53.016;18.632;2022-10-16T15:23:30;5.72;;;5.05;;
36379;SDS011;22411;53.016;18.632;2022-10-16T15:25:56;6.20;;;5.55;;
36379;SDS011;22411;53.016;18.632;2022-10-16T15:28:22;10.32;;;7.32;;
36379;SDS011;22411;53.016;18.632;2022-10-16T15:30:50;9.60;;;7.93;;
36379;SDS011;22411;53.016;18.632;2022-10-16T15:33:23;5.85;;;5.25;;
36379;SDS011;22411;53.016;18.632;2022-10-16T15:38:20;6.47;;;5.85;;
36379;SDS011;22411;53.016;18.632;2022-10-16T15:40:48;8.13;;;6.07;;
36379;SDS011;22411;53.016;18.632;2022-10-16T15:43:14;6.78;;;5.15;;
36379;SDS011;22411;53.016;18.632;2022-10-16T15:45:41;5.57;;;3.60;;
36379;SDS011;22411;53.016;18.632;2022-10-16T15:48:09;3.38;;;3.08;;
36379;SDS011;22411;53.016;18.632;2022-10-16T15:50:42;4.45;;;4.05;;
36379;SDS011;22411;53.016;18.632;2022-10-16T15:53:08;5.53;;;4.22;;
36379;SDS011;22411;53.016;18.632;2022-10-16T15:55:34;4.85;;;4.45;;
36379;SDS011;22411;53.016;18.632;2022-10-16T15:58:03;8.60;;;6.05;;
36379;SDS011;22411;53.016;18.632;2022-10-16T16:00:30;7.75;;;5.18;;
36379;SDS011;22411;53.016;18.632;2022-10-16T16:02:55;7.25;;;5.85;;
36379;SDS011;22411;53.016;18.632;2022-10-16T16:05:22;5.70;;;5.03;;
36379;SDS011;22411;53.016;18.632;2022-10-16T16:07:48;6.25;;;5.60;;
36379;SDS011;22411;53.016;18.632;2022-10-16T16:10:17;7.70;;;5.80;;
36379;SDS011;22411;53.016;18.632;2022-10-16T16:12:46;19.73;;;17.95;;
36379;SDS011;22411;53.016;18.632;2022-10-16T16:15:21;17.08;;;15.55;;
36379;SDS011;22411;53.016;18.632;2022-10-16T16:17:47;10.77;;;9.68;;
36379;SDS011;22411;53.016;18.632;2022-10-16T16:20:14;9.57;;;8.75;;
36379;SDS011;22411;53.016;18.632;2022-10-16T16:22:40;13.80;;;12.52;;
36379;SDS011;22411;53.016;18.632;2022-10-16T16:25:06;9.35;;;8.45;;
36379;SDS011;22411;53.016;18.632;2022-10-16T16:27:33;9.68;;;8.77;;
36379;SDS011;22411;53.016;18.632;2022-10-16T16:30:02;8.15;;;6.43;;
36379;SDS011;22411;53.016;18.632;2022-10-16T16:32:29;30.25;;;27.25;;
36379;SDS011;22411;53.016;18.632;2022-10-16T16:34:55;68.20;;;62.15;;
36379;SDS011;22411;53.016;18.632;2022-10-16T16:37:21;27.52;;;24.88;;
36379;SDS011;22411;53.016;18.632;2022-10-16T16:39:47;45.28;;;40.75;;
36379;SDS011;22411;53.016;18.632;2022-10-16T16:42:13;26.35;;;23.63;;
36379;SDS011;22411;53.016;18.632;2022-10-16T16:44:39;12.13;;;11.05;;
36379;SDS011;22411;53.016;18.632;2022-10-16T16:47:05;12.18;;;10.90;;
36379;SDS011;22411;53.016;18.632;2022-10-16T16:49:31;8.98;;;7.82;;
36379;SDS011;22411;53.016;18.632;2022-10-16T16:51:57;12.00;;;7.78;;
36379;SDS011;22411;53.016;18.632;2022-10-16T16:54:23;9.52;;;8.63;;